Akutan, Alaska
Current Conditions -  °F | °C
As of 3:35 PM on Monday 24 Nov 2014 (Local Time) from PAUT Reporting Station
Overcast Overcast  
Wind Chill: 37°   Ceiling: 4000
Heat Index: 37°   Visibility: 10mi
Dew Point: 30°   Wind: 3mph
Humidity: 77%   Direction: 230°SW
Pressure: 29.9"   Gusts: NA
Location:  54.14°N, 165.77°W
Report Text: PAUT 250035Z AUTO 23003KT 10SM SCT035 OVC040 03/M01 A2990 RMK AO2 T00271010
Loading
Personal Weather Stations






























Interactive Weather Map New forecast layout! Learn more

10-Day Weather Forecast

Advertisements
Track Severe Weather on mobile